Time;durP1;ratioP1;P1;durP2;ratioP2;P2;SDS_P1;SDS_P2;PMS_P1;PMS_P2;Temp;Humidity;BMP_temperature;BMP_pressure;BME280_temperature;BME280_humidity;BME280_pressure;Samples;Min_cycle;Max_cycle;Signal;HPM_P1;HPM_P2
2022/11/28 00:00:38;;;;;;;18.47;8.63;;;;;;;4.40;100.00;101029.94;4973092;28;20031;-80
2022/11/28 00:03:03;;;;;;;14.10;7.87;;;;;;;4.38;100.00;101017.78;4980535;28;20045;-76
2022/11/28 00:05:29;;;;;;;20.47;8.23;;;;;;;4.33;100.00;101004.06;4988474;28;20084;-77
2022/11/28 00:07:54;;;;;;;18.37;9.03;;;;;;;4.33;100.00;101002.28;4972556;28;20166;-77
2022/11/28 00:10:20;;;;;;;13.93;7.55;;;;;;;4.36;100.00;101003.84;4992896;28;20026;-77
2022/11/28 00:12:45;;;;;;;16.40;7.90;;;;;;;4.30;100.00;100985.78;4974823;28;20385;-78
2022/11/28 00:15:12;;;;;;;17.07;7.23;;;;;;;4.34;100.00;100995.19;4981453;28;20046;-79
2022/11/28 00:17:37;;;;;;;14.43;6.90;;;;;;;4.33;100.00;100964.41;4994164;28;20499;-77
2022/11/28 00:20:02;;;;;;;16.10;7.63;;;;;;;4.42;100.00;100958.41;4971701;28;20065;-77
2022/11/28 00:22:28;;;;;;;17.58;7.63;;;;;;;4.35;100.00;100944.81;4971733;28;20038;-77
2022/11/28 00:24:54;;;;;;;17.55;7.55;;;;;;;4.38;100.00;100943.78;4981362;28;20109;-77
2022/11/28 00:27:20;;;;;;;12.95;6.22;;;;;;;4.38;100.00;100941.13;4957309;28;20038;-76
2022/11/28 00:29:45;;;;;;;15.27;6.55;;;;;;;4.39;100.00;100925.13;4967352;28;20553;-77
2022/11/28 00:32:10;;;;;;;17.20;7.80;;;;;;;4.31;100.00;100913.44;4976118;28;20033;-76
2022/11/28 00:34:36;;;;;;;13.37;7.03;;;;;;;4.29;100.00;100904.81;4992917;28;20536;-79
2022/11/28 00:37:01;;;;;;;11.97;6.47;;;;;;;4.37;100.00;100900.59;4990841;28;20030;-79
2022/11/28 00:39:26;;;;;;;16.05;7.65;;;;;;;4.30;100.00;100901.22;4983074;28;20045;-77
2022/11/28 00:41:52;;;;;;;17.83;6.80;;;;;;;4.34;100.00;100898.22;4980262;28;20504;-77
2022/11/28 00:44:17;;;;;;;18.25;7.88;;;;;;;4.40;100.00;100894.25;4963140;28;20041;-77
2022/11/28 00:46:43;;;;;;;13.63;6.80;;;;;;;4.36;100.00;100874.31;4995645;28;20062;-76
2022/11/28 00:49:08;;;;;;;11.83;6.67;;;;;;;4.38;100.00;100872.41;4974499;28;20038;-76
2022/11/28 00:51:34;;;;;;;16.30;6.68;;;;;;;4.29;100.00;100867.81;4978101;28;20038;-77
2022/11/28 00:54:01;;;;;;;11.43;6.85;;;;;;;4.36;100.00;100880.44;4975766;28;20050;-79
2022/11/28 00:56:30;;;;;;;14.05;6.07;;;;;;;4.39;100.00;100872.25;4994187;28;20549;-77
2022/11/28 00:58:55;;;;;;;17.15;6.72;;;;;;;4.36;100.00;100853.16;4971923;28;20035;-76
2022/11/28 01:01:25;;;;;;;11.63;6.00;;;;;;;4.41;100.00;100862.41;4978997;28;20046;-79
2022/11/28 01:03:52;;;;;;;10.68;6.30;;;;;;;4.35;100.00;100854.09;4968864;28;20522;-78
2022/11/28 01:06:21;;;;;;;28.33;7.20;;;;;;;4.28;100.00;100844.97;4996117;28;20137;-76
2022/11/28 01:08:46;;;;;;;13.82;6.20;;;;;;;4.32;100.00;100841.13;4977270;28;20035;-76
2022/11/28 01:11:12;;;;;;;21.73;8.40;;;;;;;4.39;100.00;100842.34;4974036;28;20464;-77
2022/11/28 01:13:39;;;;;;;13.95;6.53;;;;;;;4.29;100.00;100821.06;4987485;28;20326;-77
2022/11/28 01:16:04;;;;;;;14.95;7.18;;;;;;;4.27;100.00;100827.44;4976177;28;20484;-77
2022/11/28 01:18:30;;;;;;;13.68;7.50;;;;;;;4.25;100.00;100829.38;4977294;28;20038;-77
2022/11/28 01:20:55;;;;;;;17.10;7.93;;;;;;;4.29;100.00;100849.31;4977241;28;20045;-77
2022/11/28 01:23:20;;;;;;;12.27;6.67;;;;;;;4.35;100.00;100840.88;4986506;28;20109;-76
2022/11/28 01:25:46;;;;;;;13.17;7.57;;;;;;;4.33;100.00;100826.94;4964390;28;20038;-77
2022/11/28 01:28:11;;;;;;;13.87;6.47;;;;;;;4.31;100.00;100805.06;4981007;28;20448;-77
2022/11/28 01:30:36;;;;;;;10.73;6.37;;;;;;;4.26;100.00;100788.75;4987250;28;20285;-77
2022/11/28 01:33:02;;;;;;;14.50;7.30;;;;;;;4.28;100.00;100790.31;4955514;28;20089;-77
2022/11/28 01:35:27;;;;;;;11.30;5.80;;;;;;;4.25;100.00;100787.91;4980641;28;20053;-77
2022/11/28 01:37:52;;;;;;;14.00;6.63;;;;;;;4.28;100.00;100768.31;4978038;28;20033;-76
2022/11/28 01:40:18;;;;;;;12.20;6.07;;;;;;;4.35;100.00;100766.88;4976320;28;20289;-76
2022/11/28 01:42:43;;;;;;;11.60;6.63;;;;;;;4.32;100.00;100751.28;4979734;28;20035;-78
2022/11/28 01:45:20;;;;;;;16.47;7.97;;;;;;;4.34;100.00;100742.25;4987887;28;20489;-78
2022/11/28 01:47:48;;;;;;;13.80;6.85;;;;;;;4.35;100.00;100724.59;4986442;28;20030;-78
2022/11/28 01:50:14;;;;;;;13.02;6.70;;;;;;;4.39;100.00;100726.03;4987996;28;20022;-78
2022/11/28 01:52:43;;;;;;;16.85;6.68;;;;;;;4.33;100.00;100718.56;4984942;28;20412;-77
2022/11/28 01:55:11;;;;;;;15.20;7.10;;;;;;;4.33;100.00;100715.94;4999898;28;20043;-79
2022/11/28 01:57:38;;;;;;;16.75;6.90;;;;;;;4.37;100.00;100704.16;4989772;28;20084;-77
2022/11/28 02:00:15;;;;;;;12.90;6.15;;;;;;;4.30;100.00;100685.31;4986204;28;20049;-78
2022/11/28 02:02:48;;;;;;;14.63;6.70;;;;;;;4.32;100.00;100677.25;4983274;28;20094;-75
2022/11/28 02:05:15;;;;;;;12.90;7.50;;;;;;;4.35;100.00;100667.28;4981727;28;20058;-78
2022/11/28 02:07:42;;;;;;;16.08;6.75;;;;;;;4.33;100.00;100669.22;4966837;28;20026;-77
2022/11/28 02:10:10;;;;;;;12.30;5.90;;;;;;;4.35;100.00;100666.44;5001126;28;20410;-78
2022/11/28 02:13:03;;;;;;;16.83;7.53;;;;;;;4.35;100.00;100663.78;4984485;28;20133;-77
2022/11/28 02:16:01;;;;;;;16.83;7.50;;;;;;;4.40;100.00;100651.91;4984903;28;20089;-78
2022/11/28 02:18:32;;;;;;;18.17;6.93;;;;;;;4.38;100.00;100622.09;4980598;28;20042;-78
2022/11/28 02:21:23;;;;;;;12.20;6.50;;;;;;;4.40;100.00;100627.25;4992413;28;20653;-79
2022/11/28 02:24:27;;;;;;;14.05;7.13;;;;;;;4.43;100.00;100608.50;4973773;28;20039;-78
2022/11/28 02:27:15;;;;;;;11.77;6.03;;;;;;;4.38;100.00;100613.34;4961145;28;20636;-78
2022/11/28 02:29:59;;;;;;;15.27;7.22;;;;;;;4.33;100.00;100615.50;4999145;28;20377;-78
2022/11/28 02:32:43;;;;;;;14.45;7.07;;;;;;;4.35;100.00;100640.00;4969514;28;20038;-79
2022/11/28 02:35:14;;;;;;;10.68;6.82;;;;;;;4.28;100.00;100657.31;4994884;28;20046;-79
2022/11/28 02:38:08;;;;;;;12.38;6.50;;;;;;;4.19;100.00;100672.97;4975978;28;20034;-78
2022/11/28 02:40:47;;;;;;;16.65;8.45;;;;;;;4.13;100.00;100705.16;4985378;28;20049;-79
2022/11/28 02:43:30;;;;;;;17.90;7.15;;;;;;;4.16;100.00;100720.75;5000010;28;20345;-79
2022/11/28 02:46:19;;;;;;;16.83;8.43;;;;;;;4.13;100.00;100738.69;4984945;28;20035;-78
2022/11/28 02:49:00;;;;;;;15.60;7.38;;;;;;;4.09;100.00;100735.41;4969467;28;20046;-76
2022/11/28 02:51:36;;;;;;;12.88;7.47;;;;;;;4.10;100.00;100746.84;4973063;28;20049;-79
2022/11/28 02:54:02;;;;;;;;;;;;;;;4.13;100.00;100746.59;4977091;28;20109;-79
2022/11/28 02:56:27;;;;;;;15.30;6.30;;;;;;;4.09;100.00;100751.28;4979831;28;19910;-78
2022/11/28 02:58:53;;;;;;;14.80;6.87;;;;;;;4.07;100.00;100758.47;4979248;28;20035;-79
2022/11/28 03:01:24;;;;;;;18.07;6.90;;;;;;;4.03;100.00;100762.34;4986186;28;20285;-78
2022/11/28 03:04:02;;;;;;;21.83;7.32;;;;;;;4.04;100.00;100758.72;4984412;28;20465;-79
2022/11/28 03:06:42;;;;;;;16.25;6.95;;;;;;;4.04;100.00;100769.28;4984063;28;20058;-79
2022/11/28 03:09:45;;;;;;;14.27;6.75;;;;;;;4.04;100.00;100764.00;4978065;28;20038;-79
2022/11/28 03:12:11;;;;;;;13.45;6.50;;;;;;;3.97;100.00;100754.88;4986487;28;20042;-79
2022/11/28 03:14:47;;;;;;;17.50;7.63;;;;;;;3.98;100.00;100775.91;4968399;28;20022;-78
2022/11/28 03:17:41;;;;;;;16.83;8.18;;;;;;;3.96;100.00;100767.25;4980304;28;20100;-79
2022/11/28 03:20:20;;;;;;;12.63;8.00;;;;;;;3.93;100.00;100771.94;4986749;28;20484;-77
2022/11/28 03:23:07;;;;;;;13.02;7.53;;;;;;;3.93;100.00;100772.78;4965709;28;20039;-78
2022/11/28 03:26:02;;;;;;;14.63;6.72;;;;;;;3.93;100.00;100766.63;4980572;28;20125;-76
2022/11/28 03:28:53;;;;;;;19.25;8.82;;;;;;;3.89;100.00;100778.44;4981356;28;20365;-79
2022/11/28 03:31:23;;;;;;;17.05;8.52;;;;;;;3.87;100.00;100772.41;4973352;28;20050;-79
2022/11/28 03:33:58;;;;;;;14.48;7.63;;;;;;;3.83;100.00;100760.41;4983989;28;20073;-79
2022/11/28 03:36:30;;;;;;;15.00;8.20;;;;;;;3.87;100.00;100778.53;4988585;28;20620;-77
2022/11/28 03:39:02;;;;;;;14.93;7.57;;;;;;;3.81;100.00;100747.31;4977992;28;20034;-73
2022/11/28 03:41:37;;;;;;;13.15;7.40;;;;;;;3.87;100.00;100746.84;4980928;28;20557;-77
2022/11/28 03:44:08;;;;;;;17.25;7.70;;;;;;;3.89;100.00;100720.31;4990402;28;20038;-78
2022/11/28 03:46:37;;;;;;;15.30;8.40;;;;;;;3.92;100.00;100707.69;4975064;28;20097;-76
2022/11/28 03:49:05;;;;;;;17.20;8.32;;;;;;;3.94;100.00;100689.94;4992593;28;20088;-77
2022/11/28 03:51:40;;;;;;;16.55;7.30;;;;;;;3.94;100.00;100675.88;4991445;28;20069;-76
2022/11/28 03:54:09;;;;;;;15.80;7.82;;;;;;;3.95;100.00;100667.00;4983651;28;20601;-77
2022/11/28 03:56:58;;;;;;;14.35;8.15;;;;;;;3.94;100.00;100646.84;4995563;28;20500;-78
2022/11/28 03:59:32;;;;;;;15.75;7.68;;;;;;;3.89;100.00;100620.78;4990185;28;20046;-79
2022/11/28 04:02:09;;;;;;;12.13;7.13;;;;;;;3.93;100.00;100611.66;4980843;28;20487;-77
2022/11/28 04:05:00;;;;;;;17.50;7.40;;;;;;;3.93;100.00;100589.66;4966414;28;20049;-76
2022/11/28 04:07:46;;;;;;;21.52;8.40;;;;;;;3.92;100.00;100585.34;4981273;28;20065;-77
2022/11/28 04:10:25;;;;;;;15.60;7.95;;;;;;;3.88;100.00;100592.66;4992363;28;20042;-79
2022/11/28 04:12:59;;;;;;;15.90;7.72;;;;;;;3.89;100.00;100601.47;4981665;28;20515;-78
2022/11/28 04:16:11;;;;;;;13.15;7.57;;;;;;;3.91;100.00;100604.78;4963291;28;20078;-79
2022/11/28 04:18:56;;;;;;;14.70;8.38;;;;;;;3.92;100.00;100607.31;4978451;28;20385;-78
2022/11/28 04:21:26;;;;;;;13.88;7.55;;;;;;;3.91;100.00;100591.59;4992085;28;20480;-77
2022/11/28 04:23:55;;;;;;;13.95;7.20;;;;;;;3.95;100.00;100587.75;4984328;28;20485;-78
2022/11/28 04:26:29;;;;;;;13.05;7.03;;;;;;;3.96;100.00;100584.16;4998242;28;20084;-76
2022/11/28 04:28:58;;;;;;;14.30;7.35;;;;;;;3.96;100.00;100565.66;4981207;28;20037;-76
2022/11/28 04:31:25;;;;;;;18.33;9.68;;;;;;;3.95;100.00;100546.31;4979487;28;20085;-77
2022/11/28 04:33:57;;;;;;;15.93;8.32;;;;;;;3.97;100.00;100519.78;4991926;28;20342;-78
2022/11/28 04:36:24;;;;;;;15.95;8.05;;;;;;;4.01;100.00;100502.72;4983997;28;20039;-78
2022/11/28 04:38:55;;;;;;;11.95;7.18;;;;;;;4.06;100.00;100492.59;4987500;28;20043;-77
2022/11/28 04:42:03;;;;;;;10.63;6.65;;;;;;;4.12;100.00;100434.00;4999397;28;20541;-79
2022/11/28 04:44:35;;;;;;;16.25;7.50;;;;;;;4.16;100.00;100411.59;4919079;29;20039;-78
2022/11/28 04:47:01;;;;;;;11.88;7.88;;;;;;;4.13;100.00;100376.69;4913271;29;20655;-77
2022/11/28 04:49:28;;;;;;;16.83;6.47;;;;;;;4.16;100.00;100379.91;4908871;29;20035;-78
2022/11/28 04:52:12;;;;;;;16.23;8.10;;;;;;;4.22;100.00;100397.06;4928565;29;20062;-78
2022/11/28 04:54:51;;;;;;;11.45;6.43;;;;;;;4.23;100.00;100388.97;4926467;29;20139;-79
2022/11/28 04:57:22;;;;;;;13.27;7.10;;;;;;;4.27;100.00;100372.88;4938724;29;20052;-78
2022/11/28 04:59:48;;;;;;;18.02;7.38;;;;;;;4.30;100.00;100372.59;4909366;29;20052;-79
2022/11/28 05:02:16;;;;;;;14.40;6.25;;;;;;;4.29;100.00;100355.09;4907221;29;20034;-79
2022/11/28 05:04:42;;;;;;;14.90;7.82;;;;;;;4.22;100.00;100349.50;4933145;29;20039;-76
2022/11/28 05:07:08;;;;;;;16.88;7.93;;;;;;;4.29;100.00;100350.63;4925715;29;20114;-77
2022/11/28 05:09:33;;;;;;;11.32;7.20;;;;;;;4.33;100.00;100356.47;4942193;29;20041;-76
2022/11/28 05:11:59;;;;;;;13.93;6.72;;;;;;;4.29;100.00;100349.81;4923197;29;20540;-77
2022/11/28 05:14:24;;;;;;;14.13;6.03;;;;;;;4.37;100.00;100349.97;4923628;29;20038;-76
2022/11/28 05:16:50;;;;;;;16.77;7.63;;;;;;;4.40;100.00;100341.75;4929163;29;20799;-76
2022/11/28 05:19:15;;;;;;;12.77;6.13;;;;;;;4.38;100.00;100344.56;4914374;28;20616;-76
2022/11/28 05:21:41;;;;;;;13.73;7.35;;;;;;;4.28;100.00;100350.75;4995546;28;20042;-74
2022/11/28 05:24:07;;;;;;;16.08;7.28;;;;;;;4.34;100.00;100363.47;5002533;28;20046;-75
2022/11/28 05:26:34;;;;;;;14.13;7.20;;;;;;;4.29;100.00;100373.59;4971219;28;20063;-77
2022/11/28 05:29:00;;;;;;;13.88;7.03;;;;;;;4.33;100.00;100393.47;4981679;28;20038;-76
2022/11/28 05:31:25;;;;;;;14.00;7.65;;;;;;;4.27;100.00;100394.03;4981964;28;20567;-74
2022/11/28 05:33:52;;;;;;;11.87;6.70;;;;;;;4.16;100.00;100419.53;4983884;28;20049;-74
2022/11/28 05:36:17;;;;;;;13.70;7.85;;;;;;;4.13;100.00;100456.78;4975614;28;20412;-76
2022/11/28 05:38:43;;;;;;;17.13;8.73;;;;;;;4.09;100.00;100449.25;4983371;28;20090;-78
2022/11/28 05:41:23;;;;;;;16.65;8.10;;;;;;;4.16;100.00;100482.94;4985864;28;20045;-77
2022/11/28 05:43:49;;;;;;;15.68;8.52;;;;;;;4.07;100.00;100489.00;4990451;28;20035;-77
2022/11/28 05:46:15;;;;;;;17.40;9.27;;;;;;;4.02;100.00;100512.31;4991701;28;20547;-76
2022/11/28 05:48:40;;;;;;;15.60;8.55;;;;;;;4.11;100.00;100534.50;4994938;28;20050;-77
2022/11/28 05:51:06;;;;;;;15.10;8.23;;;;;;;4.06;100.00;100544.63;4995634;28;20066;-75
2022/11/28 05:53:32;;;;;;;16.23;8.70;;;;;;;4.01;100.00;100548.47;4998611;28;20042;-76
2022/11/28 05:55:57;;;;;;;18.95;8.55;;;;;;;4.02;100.00;100552.78;4995491;28;20081;-77
2022/11/28 05:58:23;;;;;;;20.23;8.70;;;;;;;4.05;100.00;100548.19;4967641;28;20066;-76
2022/11/28 06:00:48;;;;;;;18.58;9.45;;;;;;;4.03;100.00;100540.44;4986114;28;20121;-76
2022/11/28 06:03:13;;;;;;;20.57;9.63;;;;;;;4.07;100.00;100530.44;4956844;28;20109;-77
2022/11/28 06:05:41;;;;;;;17.17;8.33;;;;;;;4.05;100.00;100530.56;4991771;28;20293;-77
2022/11/28 06:08:06;;;;;;;20.30;10.50;;;;;;;4.05;100.00;100543.78;4991777;28;20068;-76
2022/11/28 06:10:32;;;;;;;23.88;9.48;;;;;;;4.04;100.00;100557.09;4991947;28;20395;-77
2022/11/28 06:12:57;;;;;;;19.20;9.82;;;;;;;3.98;100.00;100543.44;4986026;28;20558;-76
2022/11/28 06:15:22;;;;;;;19.80;10.47;;;;;;;4.05;100.00;100538.50;4978508;28;20038;-77
2022/11/28 06:17:48;;;;;;;18.40;9.93;;;;;;;4.03;100.00;100529.84;4969262;28;20043;-77
2022/11/28 06:20:13;;;;;;;25.47;11.00;;;;;;;4.09;100.00;100520.56;4978462;28;20558;-77
2022/11/28 06:22:38;;;;;;;19.63;10.47;;;;;;;4.07;100.00;100517.22;4985601;28;20058;-76
2022/11/28 06:25:04;;;;;;;17.00;8.90;;;;;;;4.05;100.00;100514.72;4996286;28;20416;-77
2022/11/28 06:27:30;;;;;;;18.55;9.38;;;;;;;4.01;100.00;100524.69;4987854;28;20019;-76
2022/11/28 06:29:55;;;;;;;14.47;9.10;;;;;;;4.05;100.00;100522.66;4978434;28;20034;-75
2022/11/28 06:32:20;;;;;;;19.20;10.70;;;;;;;4.02;100.00;100520.25;4999767;28;20061;-75
2022/11/28 06:34:46;;;;;;;18.97;9.77;;;;;;;4.04;100.00;100520.97;4982923;28;20043;-74
2022/11/28 06:37:11;;;;;;;19.23;10.53;;;;;;;4.02;100.00;100517.59;4988983;28;20046;-76
2022/11/28 06:39:37;;;;;;;17.47;9.63;;;;;;;4.04;100.00;100505.09;4980494;28;20026;-76
2022/11/28 06:42:02;;;;;;;22.95;11.63;;;;;;;4.05;100.00;100509.44;4989967;28;20136;-75
2022/11/28 06:44:27;;;;;;;19.93;10.63;;;;;;;4.05;100.00;100520.00;4978423;28;20034;-76
2022/11/28 06:46:54;;;;;;;20.10;11.13;;;;;;;4.06;100.00;100523.47;4978710;28;20281;-75
2022/11/28 06:49:19;;;;;;;20.33;8.93;;;;;;;4.10;100.00;100520.47;4994280;28;20066;-76
2022/11/28 06:51:45;;;;;;;24.60;10.93;;;;;;;4.08;100.00;100522.38;4973821;28;20098;-75
2022/11/28 06:54:11;;;;;;;20.00;10.70;;;;;;;4.13;100.00;100546.63;4970462;28;21023;-75
2022/11/28 06:56:36;;;;;;;18.50;10.15;;;;;;;4.12;100.00;100567.88;4985542;28;20100;-75
2022/11/28 06:59:02;;;;;;;21.73;9.87;;;;;;;4.17;100.00;100555.16;4990086;28;20407;-76
2022/11/28 07:01:29;;;;;;;23.60;10.80;;;;;;;4.17;100.00;100541.94;4989505;28;20567;-75
2022/11/28 07:03:55;;;;;;;24.58;11.60;;;;;;;4.16;100.00;100530.50;4996430;28;20093;-76
2022/11/28 07:06:23;;;;;;;18.33;9.40;;;;;;;4.28;100.00;100543.69;5004691;28;20042;-76
2022/11/28 07:08:49;;;;;;;17.42;9.52;;;;;;;4.27;100.00;100507.66;4990029;28;20043;-75
2022/11/28 07:11:19;;;;;;;20.98;11.00;;;;;;;4.17;100.00;100471.44;4969094;28;20130;-76
2022/11/28 07:13:46;;;;;;;15.13;9.35;;;;;;;4.19;100.00;100479.22;4969523;28;20073;-75
2022/11/28 07:16:14;;;;;;;24.60;10.27;;;;;;;4.18;100.00;100475.72;4974709;28;20026;-75
2022/11/28 07:18:40;;;;;;;19.85;11.10;;;;;;;4.16;100.00;100477.66;4982970;28;20030;-74
2022/11/28 07:21:05;;;;;;;17.98;9.45;;;;;;;4.12;100.00;100478.91;4987288;28;20435;-76
2022/11/28 07:23:31;;;;;;;19.33;10.70;;;;;;;4.09;100.00;100473.03;4987830;28;20038;-79
2022/11/28 07:25:58;;;;;;;20.57;10.27;;;;;;;4.13;100.00;100488.50;4984464;28;20039;-76
2022/11/28 07:28:24;;;;;;;17.88;9.88;;;;;;;4.11;100.00;100490.41;4984322;28;20473;-74
2022/11/28 07:31:09;;;;;;;21.92;10.38;;;;;;;4.10;100.00;100488.75;4983164;28;20038;-75
2022/11/28 07:33:34;;;;;;;18.98;9.75;;;;;;;4.21;100.00;100482.56;4983910;28;20069;-75
2022/11/28 07:36:02;;;;;;;19.85;9.80;;;;;;;4.10;100.00;100459.69;4967373;28;20845;-74
2022/11/28 07:38:27;;;;;;;20.35;10.43;;;;;;;4.11;100.00;100458.72;4969122;28;20039;-75
2022/11/28 07:40:53;;;;;;;23.80;10.10;;;;;;;4.07;100.00;100467.84;4971193;28;20080;-76
2022/11/28 07:43:18;;;;;;;22.90;11.82;;;;;;;3.99;100.00;100467.66;4988925;28;20038;-74
2022/11/28 07:45:44;;;;;;;20.50;10.33;;;;;;;3.98;100.00;100479.19;4988629;28;20472;-75
2022/11/28 07:48:09;;;;;;;19.67;10.27;;;;;;;3.94;100.00;100486.53;4987557;28;20479;-75
2022/11/28 07:50:38;;;;;;;22.83;11.03;;;;;;;3.94;100.00;100498.91;4982166;28;20038;-74
2022/11/28 07:53:03;;;;;;;20.48;11.57;;;;;;;4.18;100.00;100547.06;4984640;28;20488;-77
2022/11/28 07:55:29;;;;;;;23.13;10.43;;;;;;;4.01;100.00;100492.16;4968699;28;20030;-74
2022/11/28 07:57:54;;;;;;;22.97;12.37;;;;;;;3.99;100.00;100476.41;4984436;28;20038;-75
2022/11/28 08:00:22;;;;;;;27.40;11.00;;;;;;;3.94;100.00;100461.94;4984402;28;20034;-76
2022/11/28 08:02:47;;;;;;;24.67;12.00;;;;;;;3.97;100.00;100461.66;4984037;28;20031;-75
2022/11/28 08:05:12;;;;;;;23.07;10.27;;;;;;;3.97;100.00;100461.66;4969290;28;20077;-76
2022/11/28 08:07:38;;;;;;;23.73;10.80;;;;;;;4.08;100.00;100500.41;4984205;28;20332;-74
2022/11/28 08:10:07;;;;;;;23.33;12.52;;;;;;;4.01;100.00;100481.59;4969659;28;20093;-75
2022/11/28 08:12:32;;;;;;;25.27;11.38;;;;;;;4.17;100.00;100452.94;4980818;28;20034;-75
2022/11/28 08:14:57;;;;;;;20.73;10.17;;;;;;;3.98;100.00;100390.22;4976210;28;20109;-74
2022/11/28 08:17:23;;;;;;;23.57;10.90;;;;;;;3.95;100.00;100363.22;4984804;28;20104;-75
2022/11/28 08:19:48;;;;;;;26.33;11.50;;;;;;;4.07;100.00;100404.44;4966735;28;20034;-75
2022/11/28 08:22:13;;;;;;;24.10;10.97;;;;;;;4.00;100.00;100387.44;4979371;28;20049;-74
2022/11/28 08:24:39;;;;;;;21.40;10.60;;;;;;;4.05;100.00;100389.69;4969450;28;20026;-75
2022/11/28 08:27:04;;;;;;;18.33;10.97;;;;;;;3.98;100.00;100384.09;4983529;28;20034;-76
2022/11/28 08:29:29;;;;;;;23.03;11.03;;;;;;;3.97;100.00;100369.22;4983714;28;20201;-74
2022/11/28 08:31:55;;;;;;;27.23;11.30;;;;;;;4.04;100.00;100370.38;4987172;28;20961;-75
2022/11/28 08:34:20;;;;;;;22.40;10.10;;;;;;;4.09;100.00;100360.25;4984715;28;20439;-76
2022/11/28 08:36:47;;;;;;;20.80;9.73;;;;;;;4.02;100.00;100351.16;4967792;28;20081;-77
2022/11/28 08:39:13;;;;;;;20.10;11.27;;;;;;;4.13;100.00;100361.66;4995533;28;20285;-75
2022/11/28 08:41:38;;;;;;;21.67;10.95;;;;;;;4.14;100.00;100360.69;4967343;28;20026;-75
2022/11/28 08:44:03;;;;;;;19.70;10.43;;;;;;;4.15;100.00;100358.91;4987179;28;20034;-75
2022/11/28 08:46:29;;;;;;;21.07;11.07;;;;;;;4.17;100.00;100357.81;4969418;28;20285;-75
2022/11/28 08:48:54;;;;;;;24.15;10.50;;;;;;;4.17;100.00;100363.09;4983132;28;20023;-75
2022/11/28 08:51:24;;;;;;;17.63;10.27;;;;;;;4.07;100.00;100317.25;4983693;28;20049;-75
2022/11/28 08:53:51;;;;;;;23.05;11.02;;;;;;;4.04;100.00;100320.19;4972771;28;20289;-74
2022/11/28 08:56:16;;;;;;;;;;;;;;;4.06;100.00;100323.53;4982789;28;20096;-77
2022/11/28 08:58:41;;;;;;;19.88;11.02;;;;;;;3.93;100.00;100302.63;4974517;28;19994;-77
2022/11/28 09:01:19;;;;;;;21.13;10.80;;;;;;;4.02;100.00;100311.53;4978069;28;20042;-78
2022/11/28 09:03:46;;;;;;;20.33;10.25;;;;;;;4.03;100.00;100307.94;4967261;28;20039;-76
2022/11/28 09:06:12;;;;;;;21.63;10.77;;;;;;;4.06;100.00;100310.31;4989363;28;20053;-77
2022/11/28 09:08:37;;;;;;;17.10;9.82;;;;;;;4.03;100.00;100297.38;4967624;28;20034;-78
2022/11/28 09:11:06;;;;;;;20.57;10.27;;;;;;;4.06;100.00;100310.31;4981990;28;20373;-76
2022/11/28 09:13:31;;;;;;;17.25;10.02;;;;;;;4.09;100.00;100331.19;4978056;28;20754;-76
2022/11/28 09:15:57;;;;;;;18.98;10.38;;;;;;;4.03;100.00;100318.53;4968093;28;20035;-77
2022/11/28 09:18:22;;;;;;;20.00;11.40;;;;;;;4.04;100.00;100346.59;4959499;28;20035;-77
2022/11/28 09:20:48;;;;;;;20.13;10.63;;;;;;;4.01;100.00;100352.16;4969265;28;20043;-76
2022/11/28 09:23:13;;;;;;;17.87;10.47;;;;;;;4.14;100.00;100387.13;4980421;28;20035;-77
2022/11/28 09:25:39;;;;;;;24.63;10.40;;;;;;;4.13;100.00;100372.25;4978946;28;20298;-77
2022/11/28 09:28:05;;;;;;;20.55;10.50;;;;;;;3.99;100.00;100331.13;4993624;28;20077;-76
2022/11/28 09:30:32;;;;;;;23.10;11.38;;;;;;;4.10;100.00;100350.53;4980132;28;20057;-76
2022/11/28 09:32:57;;;;;;;21.25;10.20;;;;;;;4.03;100.00;100321.16;4968034;28;20086;-77
2022/11/28 09:35:23;;;;;;;25.90;10.73;;;;;;;3.99;100.00;100317.09;4973063;28;20090;-76
2022/11/28 09:37:48;;;;;;;18.20;10.43;;;;;;;4.08;100.00;100326.88;4977954;28;20559;-77
2022/11/28 09:40:18;;;;;;;21.80;9.80;;;;;;;4.06;100.00;100310.31;4990229;28;20503;-78
2022/11/28 09:42:45;;;;;;;17.30;9.02;;;;;;;4.01;100.00;100294.03;4973124;28;20045;-77
2022/11/28 09:45:14;;;;;;;18.80;8.80;;;;;;;4.04;100.00;100296.41;4983808;28;20377;-76
2022/11/28 09:47:43;;;;;;;18.45;9.63;;;;;;;4.02;100.00;100288.59;4990335;28;20043;-77
2022/11/28 09:50:18;;;;;;;16.63;8.95;;;;;;;4.08;100.00;100276.69;4971208;28;20514;-77
2022/11/28 09:53:02;;;;;;;12.10;6.83;;;;;;;4.16;100.00;100295.34;4985287;28;20046;-78
2022/11/28 09:55:38;;;;;;;20.38;8.95;;;;;;;4.21;100.00;100274.66;5000055;28;20061;-79
2022/11/28 09:58:12;;;;;;;17.50;9.00;;;;;;;4.33;100.00;100287.75;4993232;28;20057;-77
2022/11/28 10:00:46;;;;;;;21.63;10.10;;;;;;;4.24;100.00;100265.63;4992963;28;20457;-78
2022/11/28 10:03:36;;;;;;;16.90;8.57;;;;;;;4.24;100.00;100247.13;4979532;28;20125;-77
2022/11/28 10:06:22;;;;;;;19.15;9.82;;;;;;;4.20;100.00;100222.78;4990799;28;20392;-77
2022/11/28 10:08:58;;;;;;;18.33;10.20;;;;;;;4.26;100.00;100224.06;4972256;28;20085;-77
2022/11/28 10:11:31;;;;;;;;;;;;;;;4.35;100.00;100260.22;4983499;28;20097;-77
2022/11/28 10:14:05;;;;;;;15.13;7.82;;;;;;;4.24;100.00;100210.16;4965011;28;20042;-76
2022/11/28 10:16:55;;;;;;;19.02;9.63;;;;;;;4.25;100.00;100208.34;4991132;28;20050;-75
2022/11/28 10:19:50;;;;;;;17.67;8.63;;;;;;;4.28;100.00;100210.69;4989938;28;20635;-76
2022/11/28 10:22:19;;;;;;;18.83;9.82;;;;;;;4.29;100.00;100202.66;4973159;28;20042;-75
2022/11/28 10:24:54;;;;;;;16.63;9.00;;;;;;;4.23;100.00;100180.22;4973549;28;20031;-77
2022/11/28 10:27:27;;;;;;;13.70;6.88;;;;;;;4.22;100.00;100180.38;4975074;28;20038;-77
2022/11/28 10:29:56;;;;;;;23.80;10.32;;;;;;;4.27;100.00;100178.16;4975825;28;20073;-77
2022/11/28 10:32:38;;;;;;;19.27;9.80;;;;;;;4.28;100.00;100186.91;4989874;28;20094;-77
2022/11/28 10:35:22;;;;;;;19.95;8.70;;;;;;;4.34;100.00;100178.44;4973763;28;20073;-77
2022/11/28 10:37:49;;;;;;;18.63;9.48;;;;;;;4.27;100.00;100161.47;4984595;28;20063;-77
2022/11/28 10:40:15;;;;;;;17.55;8.02;;;;;;;4.27;100.00;100135.03;4983275;28;20096;-76
2022/11/28 10:42:48;;;;;;;20.48;10.50;;;;;;;4.27;100.00;100124.47;4974264;28;20393;-77
2022/11/28 10:45:43;;;;;;;23.67;10.05;;;;;;;4.23;100.00;100145.03;4974867;28;20066;-77
2022/11/28 10:48:37;;;;;;;22.42;8.73;;;;;;;4.23;100.00;100161.72;4974608;28;20034;-77
2022/11/28 10:51:15;;;;;;;22.10;8.65;;;;;;;4.25;100.00;100158.97;4984413;28;20057;-77
2022/11/28 10:53:53;;;;;;;22.02;9.43;;;;;;;4.22;100.00;100127.53;4979164;28;20049;-76
2022/11/28 10:56:49;;;;;;;20.38;9.98;;;;;;;4.22;100.00;100109.84;4969278;28;20049;-76
2022/11/28 10:59:37;;;;;;;19.20;8.85;;;;;;;4.09;100.00;100097.88;4971095;28;20517;-77
2022/11/28 11:02:35;;;;;;;12.68;7.45;;;;;;;4.22;100.00;100144.22;4984544;28;20037;-77
2022/11/28 11:05:00;;;;;;;21.83;9.60;;;;;;;4.21;100.00;100150.47;4972511;28;20040;-76
2022/11/28 11:07:29;;;;;;;14.15;7.88;;;;;;;4.23;100.00;100155.59;4982806;28;20109;-76
2022/11/28 11:10:05;;;;;;;19.42;9.88;;;;;;;4.20;100.00;100161.16;4969522;28;20177;-77
2022/11/28 11:12:33;;;;;;;15.75;8.40;;;;;;;4.27;100.00;100161.47;4979353;28;20045;-76
2022/11/28 11:15:14;;;;;;;18.23;8.95;;;;;;;4.17;100.00;100119.19;4967926;28;20038;-77
2022/11/28 11:17:40;;;;;;;18.48;9.20;;;;;;;4.23;100.00;100137.94;4979018;28;20419;-77
2022/11/28 11:20:31;;;;;;;14.60;8.40;;;;;;;4.23;100.00;100132.66;4989617;28;20396;-77
2022/11/28 11:22:59;;;;;;;17.50;8.57;;;;;;;4.31;100.00;100161.06;4967172;28;20053;-76
2022/11/28 11:25:27;;;;;;;18.20;8.60;;;;;;;4.33;100.00;100158.25;4990187;28;20216;-77
2022/11/28 11:27:56;;;;;;;20.73;10.10;;;;;;;4.38;100.00;100183.34;4977309;28;20325;-77
2022/11/28 11:30:32;;;;;;;19.25;8.85;;;;;;;4.34;100.00;100159.94;4982793;28;20034;-76
2022/11/28 11:33:00;;;;;;;18.60;8.43;;;;;;;4.28;100.00;100144.63;4973530;28;20038;-78